Time;durP1;ratioP1;P1;durP2;ratioP2;P2;SDS_P1;SDS_P2;PMS_P1;PMS_P2;Temp;Humidity;BMP_temperature;BMP_pressure;BME280_temperature;BME280_humidity;BME280_pressure;Samples;Min_cycle;Max_cycle;Signal;HPM_P1;HPM_P2
2021/12/24 00:01:01;;;;;;;6.82;2.45;;;24.30;55.20;;;;;;5102236;27;20008;-76
2021/12/24 00:03:28;;;;;;;5.75;2.38;;;24.30;55.10;;;;;;5104266;27;20043;-74
2021/12/24 00:05:55;;;;;;;7.35;2.60;;;24.30;55.20;;;;;;5105451;28;20016;-74
2021/12/24 00:08:21;;;;;;;10.93;3.10;;;24.20;55.10;;;;;;5101022;27;20059;-75
2021/12/24 00:11:01;;;;;;;5.65;2.63;;;24.20;55.10;;;;;;5103381;27;20032;-74
2021/12/24 00:13:29;;;;;;;13.38;2.80;;;24.20;55.30;;;;;;5079772;27;20024;-75
2021/12/24 00:16:11;;;;;;;11.05;2.75;;;24.20;55.40;;;;;;5108288;27;20467;-75
2021/12/24 00:18:44;;;;;;;7.50;1.90;;;24.20;55.50;;;;;;5103743;27;20012;-76
2021/12/24 00:37:24;;;;;;;8.65;3.00;;;24.00;55.60;;;;;;5104600;27;20076;-75
2021/12/24 00:42:18;;;;;;;11.57;3.05;;;24.00;55.80;;;;;;5106965;28;20019;-75
2021/12/24 00:44:44;;;;;;;8.90;2.50;;;24.00;56.00;;;;;;5099983;27;20028;-77
2021/12/24 00:47:11;;;;;;;8.85;3.08;;;24.00;56.10;;;;;;5104165;27;20023;-75
2021/12/24 00:49:43;;;;;;;17.77;3.67;;;24.00;56.20;;;;;;5101928;27;20019;-75
2021/12/24 00:55:09;;;;;;;10.82;3.00;;;24.00;56.40;;;;;;5100048;27;20031;-76
2021/12/24 00:57:41;;;;;;;16.25;3.47;;;24.00;56.50;;;;;;5102549;27;20477;-77
2021/12/24 01:00:37;;;;;;;12.10;3.22;;;24.00;56.60;;;;;;5099353;28;20027;-77
2021/12/24 01:03:07;;;;;;;13.70;3.95;;;24.00;56.70;;;;;;5095527;27;20054;-75
2021/12/24 01:05:34;;;;;;;9.10;3.15;;;24.00;56.80;;;;;;5096852;27;20040;-77
2021/12/24 01:08:02;;;;;;;9.20;2.60;;;23.90;56.80;;;;;;5086113;28;21265;-75
2021/12/24 01:10:32;;;;;;;8.63;2.97;;;23.90;56.90;;;;;;5103312;27;20019;-77
2021/12/24 01:13:00;;;;;;;8.68;3.63;;;23.90;57.00;;;;;;5105970;28;20061;-76
2021/12/24 01:15:28;;;;;;;12.18;3.13;;;23.90;56.90;;;;;;5103099;27;20375;-77
2021/12/24 01:20:30;;;;;;;9.88;3.47;;;23.80;56.90;;;;;;5099760;27;20024;-75
2021/12/24 01:25:47;;;;;;;10.55;3.08;;;23.80;57.30;;;;;;5101246;27;20122;-76
2021/12/24 01:28:39;;;;;;;9.32;2.53;;;23.80;57.30;;;;;;5100010;27;20027;-75
2021/12/24 01:39:37;;;;;;;8.43;2.78;;;23.70;57.30;;;;;;5097271;27;20081;-75
2021/12/24 01:44:50;;;;;;;12.80;5.35;;;23.70;57.30;;;;;;5099351;27;20057;-76
2021/12/24 01:47:17;;;;;;;8.88;2.70;;;23.70;57.40;;;;;;5101932;27;20009;-76
2021/12/24 01:49:43;;;;;;;10.40;2.65;;;23.70;57.40;;;;;;5102842;27;20020;-77
2021/12/24 01:52:10;;;;;;;36.60;7.13;;;23.70;57.40;;;;;;5104544;27;20023;-77
2021/12/24 01:54:36;;;;;;;51.67;14.82;;;23.70;57.60;;;;;;5099174;27;20028;-77
2021/12/24 01:57:04;;;;;;;28.40;11.18;;;23.60;57.60;;;;;;5097793;27;20020;-75
2021/12/24 01:59:30;;;;;;;19.58;6.18;;;23.60;57.60;;;;;;5099052;28;20027;-75
2021/12/24 02:01:57;;;;;;;15.60;4.50;;;23.60;57.40;;;;;;5098049;28;20028;-76
2021/12/24 02:04:23;;;;;;;13.75;4.20;;;23.60;57.20;;;;;;5100736;27;20058;-76
2021/12/24 02:06:50;;;;;;;11.57;3.22;;;23.60;57.00;;;;;;5097052;28;20487;-75
2021/12/24 02:09:17;;;;;;;10.43;2.45;;;23.60;56.90;;;;;;5105929;28;20020;-77
2021/12/24 02:11:44;;;;;;;12.48;2.30;;;23.50;56.80;;;;;;5097597;27;20378;-76
2021/12/24 02:14:16;;;;;;;10.27;2.95;;;23.50;56.70;;;;;;5101678;28;20470;-76
2021/12/24 02:30:01;;;;;;;13.95;2.45;;;23.40;57.20;;;;;;5103265;28;20034;-76
2021/12/24 02:32:27;;;;;;;11.60;2.65;;;23.40;57.30;;;;;;5103672;28;20466;-77
2021/12/24 02:34:54;;;;;;;21.25;4.03;;;23.40;57.30;;;;;;5105098;28;20133;-75
2021/12/24 02:37:20;;;;;;;13.88;3.55;;;23.40;57.50;;;;;;5099069;28;20020;-76
2021/12/24 02:39:47;;;;;;;13.95;3.60;;;23.30;57.60;;;;;;5096685;28;20019;-76
2021/12/24 02:42:17;;;;;;;20.10;3.78;;;23.30;57.60;;;;;;5105260;28;20023;-77
2021/12/24 02:44:45;;;;;;;14.23;3.83;;;23.30;57.70;;;;;;5103860;27;20035;-77
2021/12/24 02:47:37;;;;;;;12.88;2.85;;;23.30;57.80;;;;;;5104159;27;20482;-76
2021/12/24 02:55:14;;;;;;;18.90;3.85;;;23.20;57.90;;;;;;5104669;27;20035;-76
2021/12/24 02:57:43;;;;;;;35.95;4.72;;;23.20;58.00;;;;;;5101957;27;20036;-76
2021/12/24 03:00:19;;;;;;;18.60;3.58;;;23.20;58.10;;;;;;5103723;27;20023;-77
2021/12/24 03:02:48;;;;;;;16.15;4.50;;;23.20;58.20;;;;;;5100236;28;20031;-77
2021/12/24 03:05:16;;;;;;;10.68;3.38;;;23.20;58.20;;;;;;5088662;28;20507;-77
2021/12/24 03:07:43;;;;;;;20.42;3.15;;;23.20;58.30;;;;;;5101733;27;20019;-76
2021/12/24 03:10:14;;;;;;;11.77;3.03;;;23.20;58.30;;;;;;5102899;27;20024;-75
2021/12/24 03:12:43;;;;;;;13.27;3.10;;;23.20;58.30;;;;;;5099286;28;20124;-75
2021/12/24 03:15:12;;;;;;;35.30;5.63;;;23.20;58.30;;;;;;5105016;27;20059;-74
2021/12/24 03:17:45;;;;;;;45.22;15.40;;;23.10;58.30;;;;;;5103602;27;20556;-73
2021/12/24 03:20:12;;;;;;;30.27;11.35;;;23.10;58.90;;;;;;5103530;27;20043;-75
2021/12/24 03:22:51;;;;;;;24.08;5.90;;;23.10;59.00;;;;;;5103424;27;20146;-74
2021/12/24 03:25:17;;;;;;;22.00;4.10;;;23.00;58.90;;;;;;5100154;27;20039;-76
2021/12/24 03:27:46;;;;;;;31.48;4.80;;;23.00;59.10;;;;;;5102810;27;20809;-76
2021/12/24 03:30:13;;;;;;;18.58;4.07;;;23.00;59.00;;;;;;5104939;27;20060;-77
2021/12/24 03:32:39;;;;;;;82.30;53.53;;;23.00;59.00;;;;;;5106706;27;20061;-73
2021/12/24 03:35:06;;;;;;;70.25;52.85;;;23.00;59.00;;;;;;5095868;27;20463;-74
2021/12/24 03:37:33;;;;;;;24.30;9.27;;;23.00;59.00;;;;;;5106501;27;20023;-74
2021/12/24 03:39:59;;;;;;;16.73;5.38;;;23.00;58.60;;;;;;5100503;27;20031;-75
2021/12/24 03:42:26;;;;;;;12.52;3.50;;;22.70;59.30;;;;;;5101972;27;20035;-74
2021/12/24 03:44:59;;;;;;;5.10;2.22;;;22.70;59.50;;;;;;5102201;27;20470;-74
2021/12/24 03:47:34;;;;;;;15.60;3.03;;;22.70;59.50;;;;;;5105463;27;20020;-75
2021/12/24 03:50:06;;;;;;;10.02;1.85;;;22.70;59.40;;;;;;5104615;27;20478;-74
2021/12/24 03:54:59;;;;;;;12.68;2.40;;;22.80;59.20;;;;;;5102708;27;20035;-74
2021/12/24 03:57:38;;;;;;;6.90;3.22;;;22.80;59.20;;;;;;5099367;27;20028;-76
2021/12/24 04:00:18;;;;;;;7.97;2.47;;;22.80;59.20;;;;;;5104222;27;20021;-77
2021/12/24 04:02:46;;;;;;;7.90;3.45;;;22.80;59.30;;;;;;5101187;27;20020;-76
2021/12/24 04:05:14;;;;;;;8.50;2.80;;;22.90;59.40;;;;;;5104895;27;20072;-74
2021/12/24 04:07:40;;;;;;;9.45;2.63;;;22.80;59.40;;;;;;5101264;27;20034;-76
2021/12/24 04:10:50;;;;;;;8.75;2.80;;;22.80;59.50;;;;;;5105959;27;20031;-78
2021/12/24 04:12:58;;;;;;;14.88;2.90;;;22.90;59.60;;;;;;5092874;27;20044;-75
2021/12/24 04:15:24;;;;;;;26.65;8.88;;;22.90;59.80;;;;;;5102777;27;20057;-75
2021/12/24 04:17:51;;;;;;;34.67;15.43;;;22.90;59.90;;;;;;5107272;27;20039;-73
2021/12/24 04:26:01;;;;;;;35.10;6.80;;;22.90;60.30;;;;;;5051724;28;20049;-73
2021/12/24 04:28:27;;;;;;;27.60;5.35;;;22.90;60.80;;;;;;5079020;28;20430;-73
2021/12/24 04:30:54;;;;;;;23.35;8.65;;;22.90;61.30;;;;;;5079293;28;20430;-75
2021/12/24 04:33:30;;;;;;;28.90;17.17;;;22.90;61.60;;;;;;5077159;28;20055;-77
2021/12/24 04:39:08;;;;;;;17.35;8.73;;;22.90;61.60;;;;;;5078917;28;20111;-75
2021/12/24 05:03:43;;;;;;;8.10;2.63;;;22.90;61.00;;;;;;5075761;28;20096;-75
2021/12/24 05:06:30;;;;;;;7.05;2.70;;;23.00;60.90;;;;;;5080472;28;20790;-76
2021/12/24 05:09:04;;;;;;;4.90;1.80;;;23.00;60.90;;;;;;5083463;28;20479;-76
2021/12/24 05:11:31;;;;;;;3.83;1.40;;;23.00;60.70;;;;;;5081761;28;20039;-77
2021/12/24 05:13:57;;;;;;;4.22;1.80;;;23.00;60.60;;;;;;5079237;28;20281;-75
2021/12/24 05:16:39;;;;;;;3.15;1.70;;;23.00;60.50;;;;;;5081653;28;20023;-75
2021/12/24 05:21:42;;;;;;;17.50;2.72;;;23.00;60.20;;;;;;5081737;28;20487;-74
2021/12/24 05:24:16;;;;;;;16.15;2.05;;;23.00;60.50;;;;;;5099119;28;20051;-75
2021/12/24 05:26:52;;;;;;;14.67;2.47;;;23.00;60.60;;;;;;5099018;27;20027;-74
2021/12/24 05:29:19;;;;;;;8.77;1.98;;;23.10;60.40;;;;;;5100566;27;20011;-73
2021/12/24 05:31:46;;;;;;;8.98;2.42;;;23.10;60.20;;;;;;5098872;27;20012;-73
2021/12/24 05:34:15;;;;;;;164.68;15.38;;;23.10;60.10;;;;;;5098030;28;20030;-74
